createdAt,value
2022-12-23T00:01:52.283Z,82.20
2022-12-23T00:04:22.830Z,82.10
2022-12-23T00:06:53.107Z,80.20
2022-12-23T00:09:23.800Z,81.40
2022-12-23T00:12:12.022Z,81.00
2022-12-23T00:15:00.669Z,79.00
2022-12-23T00:17:31.011Z,79.90
2022-12-23T00:20:01.845Z,79.70
2022-12-23T00:22:50.812Z,80.40
2022-12-23T00:25:22.399Z,79.80
2022-12-23T00:28:05.302Z,79.20
2022-12-23T00:30:36.137Z,78.00
2022-12-23T00:33:06.877Z,78.30
2022-12-23T00:35:37.799Z,78.50
2022-12-23T00:38:08.718Z,78.00
2022-12-23T00:40:57.418Z,77.00
2022-12-23T00:43:28.203Z,75.70
2022-12-23T00:45:58.505Z,75.30
2022-12-23T00:48:46.778Z,75.60
2022-12-23T00:51:18.292Z,74.60
2022-12-23T00:53:48.563Z,73.50
2022-12-23T00:56:19.308Z,73.30
2022-12-23T00:58:49.640Z,72.60
2022-12-23T01:01:38.744Z,72.00
2022-12-23T01:04:27.658Z,71.00
2022-12-23T01:06:58.406Z,72.10
2022-12-23T01:09:29.449Z,70.90
2022-12-23T01:12:00.040Z,70.40
2022-12-23T01:14:31.157Z,69.80
2022-12-23T01:17:02.020Z,69.50
2022-12-23T01:19:33.365Z,70.00
2022-12-23T01:22:04.237Z,71.50
2022-12-23T01:24:35.922Z,71.40
2022-12-23T01:27:06.521Z,70.00
2022-12-23T01:29:36.873Z,71.00
2022-12-23T01:32:07.980Z,68.40
2022-12-23T01:34:38.421Z,69.50
2022-12-23T01:37:08.968Z,68.90
2022-12-23T01:39:41.649Z,68.00
2022-12-23T01:42:38.549Z,68.70
2022-12-23T01:45:17.544Z,66.90
2022-12-23T01:48:04.458Z,65.90
2022-12-23T01:51:04.872Z,66.00
2022-12-23T01:53:41.002Z,64.70
2022-12-23T01:56:14.402Z,65.30
2022-12-23T01:58:50.624Z,64.60
2022-12-23T02:01:38.864Z,64.10
2022-12-23T02:04:12.861Z,64.50
2022-12-23T02:07:03.243Z,63.90
2022-12-23T02:09:39.817Z,64.10
2022-12-23T02:12:28.474Z,64.80
2022-12-23T02:15:44.494Z,64.30
2022-12-23T02:18:36.987Z,65.40
2022-12-23T02:21:34.111Z,64.60
2022-12-23T02:24:49.430Z,64.10
2022-12-23T02:27:54.418Z,61.70
2022-12-23T02:30:50.308Z,62.50
2022-12-23T02:33:33.059Z,61.50
2022-12-23T02:36:29.536Z,62.90
2022-12-23T02:39:13.767Z,62.80
2022-12-23T02:42:29.490Z,63.10
2022-12-23T02:45:22.479Z,61.30
2022-12-23T02:48:01.684Z,59.90
2022-12-23T02:50:35.620Z,61.60
2022-12-23T02:53:14.529Z,62.80
2022-12-23T02:55:48.665Z,61.00
2022-12-23T02:58:23.143Z,62.00
2022-12-23T03:00:54.505Z,61.10
2022-12-23T03:03:26.848Z,60.40
2022-12-23T03:05:59.509Z,60.70
2022-12-23T03:08:37.170Z,60.70
2022-12-23T03:11:49.869Z,61.60
2022-12-23T03:15:10.065Z,62.00
2022-12-23T03:18:13.217Z,60.60
2022-12-23T03:21:20.456Z,60.30
2022-12-23T03:24:00.554Z,60.00
2022-12-23T03:27:02.247Z,60.70
2022-12-23T03:30:05.247Z,61.10
2022-12-23T03:32:40.384Z,60.00
2022-12-23T03:35:13.899Z,61.50
2022-12-23T03:37:48.741Z,61.60
2022-12-23T03:40:45.010Z,61.40
2022-12-23T03:43:24.486Z,59.70
2022-12-23T03:46:01.075Z,60.90
2022-12-23T03:48:40.069Z,61.00
2022-12-23T03:51:20.172Z,60.70
2022-12-23T03:53:58.845Z,60.60
2022-12-23T03:56:37.743Z,61.00
2022-12-23T03:59:21.517Z,61.20
2022-12-23T04:02:12.939Z,61.10
2022-12-23T04:05:10.527Z,60.00
2022-12-23T04:07:43.693Z,60.50
2022-12-23T04:10:15.493Z,59.90
2022-12-23T04:13:04.887Z,58.40
2022-12-23T04:15:54.310Z,60.20
2022-12-23T04:18:25.212Z,60.40
2022-12-23T04:20:55.966Z,60.70
2022-12-23T04:23:26.823Z,60.60
2022-12-23T04:25:57.068Z,61.90
2022-12-23T04:28:27.398Z,61.20
2022-12-23T04:30:57.836Z,61.80
2022-12-23T04:33:28.306Z,62.50
2022-12-23T04:35:58.562Z,62.20
2022-12-23T04:38:35.159Z,62.30
2022-12-23T04:41:05.922Z,60.70
2022-12-23T04:43:37.834Z,61.40
2022-12-23T04:46:08.859Z,59.80
2022-12-23T04:48:39.914Z,61.40
2022-12-23T04:51:11.465Z,60.90
2022-12-23T04:53:42.607Z,60.20
2022-12-23T04:56:15.252Z,60.50
2022-12-23T04:58:45.859Z,60.20
2022-12-23T05:01:16.332Z,60.30
2022-12-23T05:03:47.238Z,60.10
2022-12-23T05:06:17.741Z,61.70
2022-12-23T05:08:48.259Z,61.90
2022-12-23T05:11:18.923Z,59.90
2022-12-23T05:13:49.754Z,60.70
2022-12-23T05:16:20.558Z,61.70
2022-12-23T05:18:51.541Z,62.50
2022-12-23T05:21:22.529Z,62.00
2022-12-23T05:23:53.394Z,61.20
2022-12-23T05:26:24.095Z,61.00
2022-12-23T05:28:54.391Z,62.00
2022-12-23T05:31:24.716Z,61.00
2022-12-23T05:33:56.647Z,60.80
2022-12-23T05:36:29.140Z,59.50
2022-12-23T05:39:00.025Z,59.60
2022-12-23T05:41:31.930Z,58.50
2022-12-23T05:44:02.918Z,59.50
2022-12-23T05:46:33.737Z,59.20
2022-12-23T05:49:04.596Z,60.10
2022-12-23T05:51:35.315Z,60.20
2022-12-23T05:54:07.865Z,60.70
2022-12-23T05:56:38.519Z,60.30
2022-12-23T05:59:08.759Z,60.50
2022-12-23T06:01:39.189Z,60.20
2022-12-23T06:04:10.289Z,59.60
2022-12-23T06:06:41.058Z,59.40
2022-12-23T06:09:13.713Z,58.80
2022-12-23T06:11:44.351Z,58.20
2022-12-23T06:14:15.419Z,58.30
2022-12-23T06:16:45.669Z,58.90
2022-12-23T06:19:16.361Z,56.50
2022-12-23T06:21:46.969Z,57.70
2022-12-23T06:24:17.505Z,57.00
2022-12-23T06:26:51.898Z,57.40
2022-12-23T06:29:25.778Z,57.40
2022-12-23T06:31:56.498Z,57.40
2022-12-23T06:34:26.911Z,55.60
2022-12-23T06:36:57.230Z,57.40
2022-12-23T06:39:27.500Z,56.40
2022-12-23T06:42:16.197Z,56.80
2022-12-23T06:45:05.261Z,56.50
2022-12-23T06:47:35.580Z,56.10
2022-12-23T06:50:07.670Z,55.90
2022-12-23T06:52:38.104Z,56.70
2022-12-23T06:55:08.812Z,57.60
2022-12-23T06:57:39.245Z,56.10
2022-12-23T07:00:11.909Z,57.20
2022-12-23T07:02:42.583Z,56.90
2022-12-23T07:05:13.520Z,57.80
2022-12-23T07:07:44.565Z,56.80
2022-12-23T07:10:15.735Z,57.20
2022-12-23T07:13:05.477Z,56.90
2022-12-23T07:15:54.356Z,56.70
2022-12-23T07:18:28.213Z,57.70
2022-12-23T07:21:03.304Z,58.20
2022-12-23T07:23:33.826Z,57.00
2022-12-23T07:26:04.036Z,57.80
2022-12-23T07:28:34.753Z,58.90
2022-12-23T07:31:09.058Z,58.70
2022-12-23T07:33:39.768Z,60.00
2022-12-23T07:36:11.102Z,58.60
2022-12-23T07:38:42.324Z,57.30
2022-12-23T07:41:31.591Z,57.20
2022-12-23T07:44:20.819Z,57.70
2022-12-23T07:46:51.161Z,57.80
2022-12-23T07:49:21.908Z,56.70
2022-12-23T07:51:52.180Z,59.80
2022-12-23T07:54:22.430Z,57.80
2022-12-23T07:56:53.386Z,57.90
2022-12-23T07:59:24.430Z,58.10
2022-12-23T08:01:56.470Z,58.30
2022-12-23T08:04:27.781Z,58.40
2022-12-23T08:06:58.835Z,57.50
2022-12-23T08:09:29.772Z,58.50
2022-12-23T08:12:00.468Z,58.80
2022-12-23T08:14:32.454Z,58.80
2022-12-23T08:17:03.168Z,59.40
2022-12-23T08:19:33.515Z,59.00
2022-12-23T08:22:04.096Z,58.00
2022-12-23T08:24:34.862Z,59.00
2022-12-23T08:27:05.554Z,59.40
2022-12-23T08:29:38.789Z,59.30
2022-12-23T08:32:09.843Z,58.70
2022-12-23T08:34:40.401Z,59.00
2022-12-23T08:37:11.157Z,59.50
2022-12-23T08:39:41.657Z,58.70
2022-12-23T08:42:11.989Z,60.10
2022-12-23T08:44:43.940Z,58.90
2022-12-23T08:47:14.990Z,58.90
2022-12-23T08:49:45.686Z,58.70
2022-12-23T08:52:16.407Z,59.40
2022-12-23T08:54:46.869Z,59.80
2022-12-23T08:57:17.167Z,59.20
2022-12-23T08:59:48.993Z,59.50
2022-12-23T09:02:19.488Z,60.00
2022-12-23T09:04:50.218Z,60.30
2022-12-23T09:07:20.584Z,60.30
2022-12-23T09:09:50.909Z,60.40
2022-12-23T09:12:40.063Z,60.60
2022-12-23T09:15:29.051Z,61.20
2022-12-23T09:17:59.390Z,61.70
2022-12-23T09:20:29.728Z,61.60
2022-12-23T09:23:02.253Z,61.70
2022-12-23T09:25:32.661Z,62.10
2022-12-23T09:28:03.659Z,63.20
2022-12-23T09:30:33.928Z,63.40
2022-12-23T09:33:04.220Z,63.20
2022-12-23T09:35:35.054Z,63.50
2022-12-23T09:38:05.709Z,64.30
2022-12-23T09:40:40.091Z,65.20
2022-12-23T09:43:28.709Z,66.30
2022-12-23T09:46:11.189Z,66.80
2022-12-23T09:48:49.996Z,66.70
2022-12-23T09:51:25.318Z,67.90
2022-12-23T09:54:01.502Z,68.30
2022-12-23T09:56:43.718Z,68.30
2022-12-23T09:59:43.558Z,68.10
2022-12-23T10:02:29.479Z,68.10
2022-12-23T10:05:25.170Z,71.30
2022-12-23T10:08:01.167Z,71.20
2022-12-23T10:10:46.480Z,70.90
2022-12-23T10:13:28.536Z,71.50
2022-12-23T10:16:05.476Z,69.50
2022-12-23T10:18:55.234Z,69.80
2022-12-23T10:21:34.743Z,69.10
2022-12-23T10:24:15.916Z,69.10
2022-12-23T10:26:57.147Z,69.40
2022-12-23T10:29:32.949Z,70.10
2022-12-23T10:32:06.878Z,70.00
2022-12-23T10:34:56.149Z,70.30
2022-12-23T10:37:51.332Z,70.60
2022-12-23T10:41:05.379Z,70.80
2022-12-23T10:44:01.604Z,71.70
2022-12-23T10:46:40.923Z,72.20
2022-12-23T10:49:29.457Z,71.60
2022-12-23T10:52:12.471Z,71.40
2022-12-23T10:54:46.303Z,72.00
2022-12-23T10:57:20.265Z,75.30
2022-12-23T10:59:50.563Z,75.10
2022-12-23T11:02:36.372Z,75.10
2022-12-23T11:05:11.806Z,74.80
2022-12-23T11:07:44.577Z,76.00
2022-12-23T11:10:30.203Z,76.70
2022-12-23T11:13:38.763Z,76.80
2022-12-23T11:16:47.164Z,77.70
2022-12-23T11:19:19.130Z,77.90
2022-12-23T11:22:02.937Z,78.30
2022-12-23T11:24:41.311Z,77.60
2022-12-23T11:27:18.825Z,77.70
2022-12-23T11:29:55.018Z,77.70
2022-12-23T11:32:30.582Z,77.70
2022-12-23T11:35:01.439Z,77.90
2022-12-23T11:37:45.647Z,78.60
2022-12-23T11:40:25.772Z,78.00
2022-12-23T11:43:03.040Z,78.60
2022-12-23T11:45:37.953Z,78.30
2022-12-23T11:48:28.710Z,78.60
2022-12-23T11:51:04.243Z,78.80
2022-12-23T11:53:38.689Z,78.80
2022-12-23T11:56:15.972Z,78.90
2022-12-23T11:58:54.113Z,78.60
2022-12-23T12:01:28.546Z,78.80
2022-12-23T12:04:03.023Z,79.90
2022-12-23T12:06:35.366Z,79.30
2022-12-23T12:09:09.003Z,80.20
2022-12-23T12:11:47.041Z,79.30
2022-12-23T12:14:50.671Z,79.70
2022-12-23T12:17:47.507Z,81.00
2022-12-23T12:20:50.525Z,81.30
2022-12-23T12:23:28.790Z,80.50
2022-12-23T12:26:31.041Z,81.80
2022-12-23T12:29:11.735Z,80.60
2022-12-23T12:31:55.041Z,80.40
2022-12-23T12:34:25.728Z,80.80
2022-12-23T12:37:23.612Z,81.20
2022-12-23T12:40:11.627Z,82.00
2022-12-23T12:42:42.753Z,81.40
2022-12-23T12:45:37.605Z,81.30
2022-12-23T12:48:28.925Z,82.70
2022-12-23T12:51:05.875Z,82.20
2022-12-23T12:53:38.234Z,81.90
2022-12-23T12:56:31.151Z,83.40
2022-12-23T12:59:02.067Z,83.60
2022-12-23T13:01:48.638Z,83.50
2022-12-23T13:04:33.211Z,83.50
2022-12-23T13:07:10.974Z,84.20
2022-12-23T13:09:44.681Z,84.20
2022-12-23T13:12:33.432Z,84.20
2022-12-23T13:15:12.623Z,83.00
2022-12-23T13:18:03.916Z,83.90
2022-12-23T13:20:43.760Z,83.50
2022-12-23T13:23:43.404Z,83.40
2022-12-23T13:26:28.752Z,83.90
2022-12-23T13:29:12.284Z,82.90
2022-12-23T13:31:59.362Z,82.20
2022-12-23T13:34:39.392Z,81.90
2022-12-23T13:37:34.281Z,81.90
2022-12-23T13:40:08.084Z,81.80
2022-12-23T13:42:48.159Z,82.40
2022-12-23T13:45:21.760Z,82.50
2022-12-23T13:48:08.189Z,83.00
2022-12-23T13:50:58.977Z,83.30
2022-12-23T13:53:51.389Z,83.80
2022-12-23T13:56:29.257Z,84.10
2022-12-23T13:59:02.360Z,84.30
2022-12-23T14:01:50.130Z,84.50
2022-12-23T14:04:33.276Z,84.70
2022-12-23T14:07:07.794Z,85.40
2022-12-23T14:09:40.928Z,86.00
2022-12-23T14:12:32.061Z,86.70
2022-12-23T14:15:18.756Z,86.90
2022-12-23T14:18:04.547Z,86.60
2022-12-23T14:20:53.211Z,86.90
2022-12-23T14:23:49.863Z,87.60
2022-12-23T14:27:05.294Z,87.60
2022-12-23T14:30:19.603Z,87.90
2022-12-23T14:32:55.333Z,87.20
2022-12-23T14:35:42.401Z,87.10
2022-12-23T14:38:20.632Z,88.20
2022-12-23T14:41:02.461Z,88.60
2022-12-23T14:43:50.794Z,88.60
2022-12-23T14:46:42.714Z,88.40
2022-12-23T14:49:40.342Z,88.70
2022-12-23T14:52:44.745Z,89.50
2022-12-23T14:55:45.393Z,88.80
2022-12-23T14:58:22.557Z,90.10
2022-12-23T15:01:13.104Z,89.80
2022-12-23T15:03:53.300Z,89.70
2022-12-23T15:06:37.270Z,89.80
2022-12-23T15:09:09.698Z,90.10
2022-12-23T15:11:43.341Z,90.50
2022-12-23T15:14:30.434Z,90.40
2022-12-23T15:17:00.853Z,90.30
2022-12-23T15:19:32.044Z,90.20
2022-12-23T15:22:20.730Z,90.30
2022-12-23T15:24:54.535Z,90.40
2022-12-23T15:27:28.403Z,90.70
2022-12-23T15:30:00.603Z,90.70
2022-12-23T15:32:32.775Z,90.90
2022-12-23T15:35:07.989Z,90.70
2022-12-23T15:37:38.691Z,90.80
2022-12-23T15:40:13.529Z,90.90
2022-12-23T15:42:51.188Z,90.90
2022-12-23T15:45:42.022Z,91.30
2022-12-23T15:48:36.805Z,91.40
2022-12-23T15:51:49.574Z,92.00
2022-12-23T15:54:34.038Z,91.60
2022-12-23T15:57:06.220Z,91.80
2022-12-23T15:59:41.687Z,91.60
2022-12-23T16:05:11.864Z,91.40
2022-12-23T16:07:45.086Z,91.60
2022-12-23T16:10:23.903Z,91.70
2022-12-23T16:12:55.418Z,91.50
2022-12-23T16:15:34.769Z,91.80
2022-12-23T16:18:15.730Z,92.10
2022-12-23T16:20:59.064Z,92.20
2022-12-23T16:23:33.229Z,92.00
2022-12-23T16:26:05.467Z,92.00
2022-12-23T16:28:51.599Z,92.10
2022-12-23T16:31:23.612Z,91.80
2022-12-23T16:33:58.603Z,92.10
2022-12-23T16:36:29.457Z,92.10
2022-12-23T16:39:11.761Z,92.10
2022-12-23T16:41:42.066Z,92.60
2022-12-23T16:44:12.573Z,91.90
2022-12-23T16:46:46.863Z,91.90
2022-12-23T16:49:32.947Z,92.10
2022-12-23T16:52:06.188Z,92.20
2022-12-23T16:54:45.089Z,92.50
2022-12-23T16:57:15.359Z,92.20
2022-12-23T16:59:46.223Z,92.40
2022-12-23T17:02:24.200Z,92.10
2022-12-23T17:04:55.519Z,92.10
2022-12-23T17:07:27.066Z,92.20
2022-12-23T17:09:57.549Z,92.60
2022-12-23T17:12:28.277Z,92.60
2022-12-23T17:14:59.285Z,92.70
2022-12-23T17:17:30.220Z,92.50
2022-12-23T17:20:01.410Z,92.70
2022-12-23T17:22:32.643Z,92.60
2022-12-23T17:25:02.978Z,92.70
2022-12-23T17:27:33.243Z,92.70
2022-12-23T17:30:03.531Z,92.50
2022-12-23T17:32:34.477Z,92.70
2022-12-23T17:35:05.226Z,92.30
2022-12-23T17:37:39.939Z,92.60
2022-12-23T17:40:15.234Z,92.60
2022-12-23T17:42:47.359Z,92.70
2022-12-23T17:45:27.059Z,93.00
2022-12-23T17:47:59.565Z,92.90
2022-12-23T17:50:30.818Z,92.60
2022-12-23T17:53:01.768Z,92.70
2022-12-23T17:55:32.942Z,92.60
2022-12-23T17:58:03.774Z,92.20
2022-12-23T18:00:34.773Z,92.50
2022-12-23T18:03:33.018Z,92.90
2022-12-23T18:06:05.911Z,92.90
2022-12-23T18:08:36.671Z,93.00
2022-12-23T18:11:08.716Z,93.30
2022-12-23T18:13:40.822Z,92.90
2022-12-23T18:16:15.412Z,92.90
2022-12-23T18:18:47.062Z,93.10
2022-12-23T18:21:24.482Z,93.00
2022-12-23T18:23:57.921Z,93.20
2022-12-23T18:26:28.688Z,93.30
2022-12-23T18:28:58.926Z,93.10
2022-12-23T18:31:29.306Z,92.80
2022-12-23T18:34:03.003Z,92.90
2022-12-23T18:36:37.129Z,92.90
2022-12-23T18:39:08.092Z,93.00
2022-12-23T18:41:38.839Z,93.20
2022-12-23T18:44:12.998Z,93.20
2022-12-23T18:46:43.660Z,93.20
2022-12-23T18:49:14.098Z,93.20
2022-12-23T18:51:44.455Z,93.40
2022-12-23T18:54:20.314Z,93.80
2022-12-23T18:56:50.974Z,93.50
2022-12-23T18:59:29.963Z,93.70
2022-12-23T19:02:01.925Z,93.40
2022-12-23T19:04:34.559Z,93.40
2022-12-23T19:07:08.967Z,93.50
2022-12-23T19:09:39.712Z,93.10
2022-12-23T19:12:11.551Z,93.20
2022-12-23T19:14:43.277Z,93.40
2022-12-23T19:17:13.640Z,93.50
2022-12-23T19:19:45.162Z,93.50
2022-12-23T19:22:15.458Z,93.40
2022-12-23T19:25:04.417Z,93.60
2022-12-23T19:27:37.587Z,93.70
2022-12-23T19:30:10.263Z,93.40
2022-12-23T19:32:42.276Z,93.40
2022-12-23T19:35:16.073Z,93.80
2022-12-23T19:37:46.300Z,93.80
2022-12-23T19:40:16.677Z,93.80
2022-12-23T19:42:47.380Z,94.00
2022-12-23T19:45:19.316Z,94.20
2022-12-23T19:47:50.153Z,94.00
2022-12-23T19:50:22.883Z,94.10
2022-12-23T19:52:53.724Z,93.90
2022-12-23T19:55:25.855Z,93.90
2022-12-23T19:57:56.551Z,93.90
2022-12-23T20:00:29.725Z,93.90
2022-12-23T20:03:00.453Z,93.90
2022-12-23T20:05:34.265Z,93.70
2022-12-23T20:08:05.087Z,93.60
2022-12-23T20:10:36.976Z,93.60
2022-12-23T20:13:08.676Z,93.60
2022-12-23T20:15:41.314Z,93.60
2022-12-23T20:18:12.174Z,93.50
2022-12-23T20:20:45.759Z,93.60
2022-12-23T20:23:16.094Z,93.90
2022-12-23T20:25:46.834Z,93.90
2022-12-23T20:28:17.173Z,93.90
2022-12-23T20:30:50.163Z,93.90
2022-12-23T20:33:20.501Z,93.80
2022-12-23T20:35:50.999Z,93.80
2022-12-23T20:38:26.390Z,93.90
2022-12-23T20:40:57.063Z,93.80
2022-12-23T20:43:27.347Z,93.70
2022-12-23T20:45:57.728Z,93.50
2022-12-23T20:48:33.514Z,93.40
2022-12-23T20:51:15.970Z,93.30
2022-12-23T20:53:46.950Z,93.10
2022-12-23T20:56:20.339Z,92.70
2022-12-23T20:58:56.775Z,92.30
2022-12-23T21:01:39.587Z,91.90
2022-12-23T21:04:17.428Z,91.90
2022-12-23T21:06:48.702Z,91.50
2022-12-23T21:09:23.435Z,91.10
2022-12-23T21:11:55.160Z,91.00
2022-12-23T21:14:25.416Z,90.70
2022-12-23T21:16:57.397Z,90.50
2022-12-23T21:19:28.980Z,90.60
2022-12-23T21:22:00.620Z,90.30
2022-12-23T21:24:31.390Z,90.20
2022-12-23T21:27:02.221Z,90.30
2022-12-23T21:29:33.678Z,90.00
2022-12-23T21:32:04.679Z,89.70
2022-12-23T21:34:35.016Z,89.10
2022-12-23T21:37:05.325Z,88.10
2022-12-23T21:39:35.840Z,86.60
2022-12-23T21:42:06.211Z,85.90
2022-12-23T21:44:36.587Z,84.70
2022-12-23T21:47:06.974Z,84.30
2022-12-23T21:49:37.519Z,83.40
2022-12-23T21:52:07.914Z,81.60
2022-12-23T21:54:38.713Z,79.80
2022-12-23T21:57:09.362Z,77.90
2022-12-23T21:59:39.802Z,76.90
2022-12-23T22:02:10.077Z,76.70
2022-12-23T22:04:40.350Z,74.80
2022-12-23T22:07:11.415Z,73.60
2022-12-23T22:09:42.125Z,73.40
2022-12-23T22:12:12.819Z,73.30
2022-12-23T22:14:43.081Z,73.70
2022-12-23T22:17:14.644Z,72.80
2022-12-23T22:19:44.925Z,72.40
2022-12-23T22:22:15.163Z,71.90
2022-12-23T22:24:45.607Z,71.60
2022-12-23T22:27:16.788Z,71.60
2022-12-23T22:29:47.268Z,70.70
2022-12-23T22:32:17.787Z,70.10
2022-12-23T22:34:48.476Z,70.60
2022-12-23T22:37:19.350Z,70.30
2022-12-23T22:39:49.856Z,70.70
2022-12-23T22:42:20.733Z,70.20
2022-12-23T22:44:51.682Z,70.50
2022-12-23T22:47:22.179Z,69.50
2022-12-23T22:49:52.991Z,69.50
2022-12-23T22:52:23.381Z,69.50
2022-12-23T22:54:53.760Z,68.80
2022-12-23T22:57:24.036Z,69.00
2022-12-23T22:59:54.408Z,69.30
2022-12-23T23:02:25.469Z,69.00
2022-12-23T23:04:55.818Z,69.20
2022-12-23T23:07:26.574Z,69.00
2022-12-23T23:09:57.616Z,69.90
2022-12-23T23:12:28.586Z,69.00
2022-12-23T23:14:59.675Z,69.20
2022-12-23T23:17:31.440Z,68.10
2022-12-23T23:20:01.881Z,67.20
2022-12-23T23:22:32.212Z,67.30
2022-12-23T23:25:03.150Z,67.70
2022-12-23T23:27:35.838Z,67.20
2022-12-23T23:30:08.669Z,66.90
2022-12-23T23:32:40.613Z,66.70
2022-12-23T23:35:12.938Z,65.90
2022-12-23T23:37:45.264Z,65.30
2022-12-23T23:40:16.278Z,65.50
2022-12-23T23:42:46.950Z,66.20
2022-12-23T23:45:17.461Z,66.40
2022-12-23T23:47:47.705Z,65.30
2022-12-23T23:50:18.222Z,65.10
2022-12-23T23:52:48.551Z,65.20
2022-12-23T23:55:19.699Z,65.40
2022-12-23T23:57:50.113Z,63.70
